sensor_id;sensor_type;location;lat;lon;timestamp;temperature;humidity
7077;DHT22;3579;48.956;9.154;2023-10-09T00:01:04;20.50;57.20
7077;DHT22;3579;48.956;9.154;2023-10-09T00:03:42;20.50;57.60
7077;DHT22;3579;48.956;9.154;2023-10-09T00:06:10;20.50;57.20
7077;DHT22;3579;48.956;9.154;2023-10-09T00:08:39;20.50;57.20
7077;DHT22;3579;48.956;9.154;2023-10-09T00:11:11;20.50;57.30
7077;DHT22;3579;48.956;9.154;2023-10-09T00:13:43;20.50;57.30
7077;DHT22;3579;48.956;9.154;2023-10-09T00:16:24;20.50;57.30
7077;DHT22;3579;48.956;9.154;2023-10-09T00:19:05;20.50;57.80
7077;DHT22;3579;48.956;9.154;2023-10-09T00:21:49;20.50;57.80
7077;DHT22;3579;48.956;9.154;2023-10-09T00:24:16;20.50;57.80
7077;DHT22;3579;48.956;9.154;2023-10-09T00:26:53;20.40;57.30
7077;DHT22;3579;48.956;9.154;2023-10-09T00:29:37;20.40;57.30
7077;DHT22;3579;48.956;9.154;2023-10-09T00:32:10;20.40;57.40
7077;DHT22;3579;48.956;9.154;2023-10-09T00:34:42;20.40;57.40
7077;DHT22;3579;48.956;9.154;2023-10-09T00:37:09;20.40;57.80
7077;DHT22;3579;48.956;9.154;2023-10-09T00:39:45;20.40;57.80
7077;DHT22;3579;48.956;9.154;2023-10-09T00:42:14;20.40;57.40
7077;DHT22;3579;48.956;9.154;2023-10-09T00:44:48;20.40;57.40
7077;DHT22;3579;48.956;9.154;2023-10-09T00:47:16;20.40;57.90
7077;DHT22;3579;48.956;9.154;2023-10-09T00:49:51;20.40;57.40
7077;DHT22;3579;48.956;9.154;2023-10-09T00:52:36;20.40;57.50
7077;DHT22;3579;48.956;9.154;2023-10-09T00:55:11;20.40;57.90
7077;DHT22;3579;48.956;9.154;2023-10-09T00:57:45;20.40;57.50
7077;DHT22;3579;48.956;9.154;2023-10-09T01:00:24;20.30;57.90
7077;DHT22;3579;48.956;9.154;2023-10-09T01:02:59;20.30;57.40
7077;DHT22;3579;48.956;9.154;2023-10-09T01:06:00;20.40;58.00
7077;DHT22;3579;48.956;9.154;2023-10-09T01:08:42;20.30;57.90
7077;DHT22;3579;48.956;9.154;2023-10-09T01:11:13;20.30;57.90
7077;DHT22;3579;48.956;9.154;2023-10-09T01:13:48;20.30;57.50
7077;DHT22;3579;48.956;9.154;2023-10-09T01:16:15;20.30;57.50
7077;DHT22;3579;48.956;9.154;2023-10-09T01:18:42;20.30;57.50
7077;DHT22;3579;48.956;9.154;2023-10-09T01:21:09;20.30;57.50
7077;DHT22;3579;48.956;9.154;2023-10-09T01:23:42;20.30;58.00
7077;DHT22;3579;48.956;9.154;2023-10-09T01:26:28;20.50;58.20
7077;DHT22;3579;48.956;9.154;2023-10-09T01:28:59;20.30;58.00
7077;DHT22;3579;48.956;9.154;2023-10-09T01:31:26;20.30;58.00
7077;DHT22;3579;48.956;9.154;2023-10-09T01:33:53;20.30;58.00
7077;DHT22;3579;48.956;9.154;2023-10-09T01:36:23;20.20;57.50
7077;DHT22;3579;48.956;9.154;2023-10-09T01:39:01;20.20;57.50
7077;DHT22;3579;48.956;9.154;2023-10-09T01:41:36;20.20;57.50
7077;DHT22;3579;48.956;9.154;2023-10-09T01:44:12;20.20;58.50
7077;DHT22;3579;48.956;9.154;2023-10-09T01:46:38;20.20;57.60
7077;DHT22;3579;48.956;9.154;2023-10-09T01:49:04;20.20;58.10
7077;DHT22;3579;48.956;9.154;2023-10-09T01:51:34;20.20;57.60
7077;DHT22;3579;48.956;9.154;2023-10-09T01:54:03;20.20;57.60
7077;DHT22;3579;48.956;9.154;2023-10-09T01:56:29;20.20;57.60
7077;DHT22;3579;48.956;9.154;2023-10-09T01:58:55;20.20;58.10
7077;DHT22;3579;48.956;9.154;2023-10-09T02:01:23;20.20;57.70
7077;DHT22;3579;48.956;9.154;2023-10-09T02:03:49;20.20;57.60
7077;DHT22;3579;48.956;9.154;2023-10-09T02:06:17;20.20;57.70
7077;DHT22;3579;48.956;9.154;2023-10-09T02:08:54;20.20;58.10
7077;DHT22;3579;48.956;9.154;2023-10-09T02:11:22;20.10;57.60
7077;DHT22;3579;48.956;9.154;2023-10-09T02:14:04;20.10;57.60
7077;DHT22;3579;48.956;9.154;2023-10-09T02:16:41;20.10;57.70
7077;DHT22;3579;48.956;9.154;2023-10-09T02:19:08;20.10;58.10
7077;DHT22;3579;48.956;9.154;2023-10-09T02:21:54;20.10;58.10
7077;DHT22;3579;48.956;9.154;2023-10-09T02:24:24;20.10;58.10
7077;DHT22;3579;48.956;9.154;2023-10-09T02:27:13;20.10;58.10
7077;DHT22;3579;48.956;9.154;2023-10-09T02:29:48;20.10;57.70
7077;DHT22;3579;48.956;9.154;2023-10-09T02:32:14;20.10;58.10
7077;DHT22;3579;48.956;9.154;2023-10-09T02:34:42;20.10;58.10
7077;DHT22;3579;48.956;9.154;2023-10-09T02:37:12;20.10;57.70
7077;DHT22;3579;48.956;9.154;2023-10-09T02:39:39;20.10;58.70
7077;DHT22;3579;48.956;9.154;2023-10-09T02:42:14;20.10;57.70
7077;DHT22;3579;48.956;9.154;2023-10-09T02:44:40;20.10;58.20
7077;DHT22;3579;48.956;9.154;2023-10-09T02:47:12;20.10;57.80
7077;DHT22;3579;48.956;9.154;2023-10-09T02:49:47;20.10;57.80
7077;DHT22;3579;48.956;9.154;2023-10-09T02:52:17;20.10;58.30
7077;DHT22;3579;48.956;9.154;2023-10-09T02:54:52;20.00;57.70
7077;DHT22;3579;48.956;9.154;2023-10-09T02:57:27;20.10;58.30
7077;DHT22;3579;48.956;9.154;2023-10-09T03:00:03;20.00;58.20
7077;DHT22;3579;48.956;9.154;2023-10-09T03:02:34;20.00;58.20
7077;DHT22;3579;48.956;9.154;2023-10-09T03:05:01;20.00;58.20
7077;DHT22;3579;48.956;9.154;2023-10-09T03:07:29;20.00;57.80
7077;DHT22;3579;48.956;9.154;2023-10-09T03:09:55;20.00;57.80
7077;DHT22;3579;48.956;9.154;2023-10-09T03:12:21;20.00;57.80
7077;DHT22;3579;48.956;9.154;2023-10-09T03:14:52;20.00;57.80
7077;DHT22;3579;48.956;9.154;2023-10-09T03:17:20;20.00;57.80
7077;DHT22;3579;48.956;9.154;2023-10-09T03:19:46;20.00;57.80
7077;DHT22;3579;48.956;9.154;2023-10-09T03:22:14;20.00;57.90
7077;DHT22;3579;48.956;9.154;2023-10-09T03:24:40;20.00;57.80
7077;DHT22;3579;48.956;9.154;2023-10-09T03:27:11;20.00;57.90
7077;DHT22;3579;48.956;9.154;2023-10-09T03:29:37;20.00;58.30
7077;DHT22;3579;48.956;9.154;2023-10-09T03:34:30;20.00;57.90
7077;DHT22;3579;48.956;9.154;2023-10-09T03:36:56;20.00;57.90
7077;DHT22;3579;48.956;9.154;2023-10-09T03:39:31;19.90;57.90
7077;DHT22;3579;48.956;9.154;2023-10-09T03:42:13;19.90;57.80
7077;DHT22;3579;48.956;9.154;2023-10-09T03:44:48;19.90;57.80
7077;DHT22;3579;48.956;9.154;2023-10-09T03:47:19;19.90;57.90
7077;DHT22;3579;48.956;9.154;2023-10-09T03:49:52;19.90;58.30
7077;DHT22;3579;48.956;9.154;2023-10-09T03:52:22;19.90;57.90
7077;DHT22;3579;48.956;9.154;2023-10-09T03:54:51;19.90;57.90
7077;DHT22;3579;48.956;9.154;2023-10-09T03:57:17;19.90;57.90
7077;DHT22;3579;48.956;9.154;2023-10-09T03:59:46;19.90;58.40
7077;DHT22;3579;48.956;9.154;2023-10-09T04:02:13;19.90;57.90
7077;DHT22;3579;48.956;9.154;2023-10-09T04:04:42;19.90;57.90
7077;DHT22;3579;48.956;9.154;2023-10-09T04:07:13;19.90;58.00
7077;DHT22;3579;48.956;9.154;2023-10-09T04:09:42;19.90;58.00
7077;DHT22;3579;48.956;9.154;2023-10-09T04:12:13;19.90;58.00
7077;DHT22;3579;48.956;9.154;2023-10-09T04:14:46;19.80;57.90
7077;DHT22;3579;48.956;9.154;2023-10-09T04:17:21;19.80;57.90
7077;DHT22;3579;48.956;9.154;2023-10-09T04:20:01;19.90;58.00
7077;DHT22;3579;48.956;9.154;2023-10-09T04:22:45;19.80;57.90
7077;DHT22;3579;48.956;9.154;2023-10-09T04:25:18;19.80;57.90
7077;DHT22;3579;48.956;9.154;2023-10-09T04:27:58;19.80;57.90
7077;DHT22;3579;48.956;9.154;2023-10-09T04:30:40;19.90;59.00
7077;DHT22;3579;48.956;9.154;2023-10-09T04:33:11;19.80;58.40
7077;DHT22;3579;48.956;9.154;2023-10-09T04:36:05;19.80;58.00
7077;DHT22;3579;48.956;9.154;2023-10-09T04:38:46;19.80;58.50
7077;DHT22;3579;48.956;9.154;2023-10-09T04:41:40;19.80;58.10
7077;DHT22;3579;48.956;9.154;2023-10-09T04:44:11;19.80;58.10
7077;DHT22;3579;48.956;9.154;2023-10-09T04:46:51;19.80;58.10
7077;DHT22;3579;48.956;9.154;2023-10-09T04:49:37;19.80;58.10
7077;DHT22;3579;48.956;9.154;2023-10-09T04:52:28;19.80;58.10
7077;DHT22;3579;48.956;9.154;2023-10-09T04:54:54;19.70;58.10
7077;DHT22;3579;48.956;9.154;2023-10-09T04:57:35;19.80;58.20
7077;DHT22;3579;48.956;9.154;2023-10-09T05:00:15;19.80;58.20
7077;DHT22;3579;48.956;9.154;2023-10-09T05:02:51;19.80;58.60
7077;DHT22;3579;48.956;9.154;2023-10-09T05:05:28;19.80;58.20
7077;DHT22;3579;48.956;9.154;2023-10-09T05:08:10;19.80;58.10
7077;DHT22;3579;48.956;9.154;2023-10-09T05:11:02;23.10;61.10
7077;DHT22;3579;48.956;9.154;2023-10-09T05:13:36;19.70;58.10
7077;DHT22;3579;48.956;9.154;2023-10-09T05:18:46;19.70;58.10
7077;DHT22;3579;48.956;9.154;2023-10-09T05:21:32;19.70;58.10
7077;DHT22;3579;48.956;9.154;2023-10-09T05:24:00;19.70;58.50
7077;DHT22;3579;48.956;9.154;2023-10-09T05:26:39;19.70;58.10
7077;DHT22;3579;48.956;9.154;2023-10-09T05:29:22;19.70;58.10
7077;DHT22;3579;48.956;9.154;2023-10-09T05:31:55;19.70;58.10
7077;DHT22;3579;48.956;9.154;2023-10-09T05:34:44;19.70;58.30
7077;DHT22;3579;48.956;9.154;2023-10-09T05:37:30;19.60;58.70
7077;DHT22;3579;48.956;9.154;2023-10-09T05:40:05;19.60;58.30
7077;DHT22;3579;48.956;9.154;2023-10-09T05:42:35;19.70;58.80
7077;DHT22;3579;48.956;9.154;2023-10-09T05:45:11;19.60;58.30
7077;DHT22;3579;48.956;9.154;2023-10-09T05:47:51;19.60;58.30
7077;DHT22;3579;48.956;9.154;2023-10-09T05:50:29;19.60;58.30
7077;DHT22;3579;48.956;9.154;2023-10-09T05:52:56;19.60;58.30
7077;DHT22;3579;48.956;9.154;2023-10-09T05:55:24;19.60;58.20
7077;DHT22;3579;48.956;9.154;2023-10-09T05:57:53;19.60;58.30
7077;DHT22;3579;48.956;9.154;2023-10-09T06:00:35;19.60;58.30
7077;DHT22;3579;48.956;9.154;2023-10-09T06:03:20;19.60;58.40
7077;DHT22;3579;48.956;9.154;2023-10-09T06:05:51;19.60;58.40
7077;DHT22;3579;48.956;9.154;2023-10-09T06:08:25;19.60;58.30
7077;DHT22;3579;48.956;9.154;2023-10-09T06:10:53;19.60;58.40
7077;DHT22;3579;48.956;9.154;2023-10-09T06:13:32;19.70;58.50
7077;DHT22;3579;48.956;9.154;2023-10-09T06:16:06;19.60;58.50
7077;DHT22;3579;48.956;9.154;2023-10-09T06:18:47;19.60;58.50
7077;DHT22;3579;48.956;9.154;2023-10-09T06:21:36;19.60;58.60
7077;DHT22;3579;48.956;9.154;2023-10-09T06:24:26;19.60;58.60
7077;DHT22;3579;48.956;9.154;2023-10-09T06:26:59;19.60;58.70
7077;DHT22;3579;48.956;9.154;2023-10-09T06:29:25;19.70;58.80
7077;DHT22;3579;48.956;9.154;2023-10-09T06:32:11;19.60;58.80
7077;DHT22;3579;48.956;9.154;2023-10-09T06:34:56;19.60;58.80
7077;DHT22;3579;48.956;9.154;2023-10-09T06:37:23;19.60;58.80
7077;DHT22;3579;48.956;9.154;2023-10-09T06:39:52;19.60;59.30
7077;DHT22;3579;48.956;9.154;2023-10-09T06:42:28;19.60;59.20
7077;DHT22;3579;48.956;9.154;2023-10-09T06:45:07;18.30;63.20
7077;DHT22;3579;48.956;9.154;2023-10-09T06:47:40;18.00;65.00
7077;DHT22;3579;48.956;9.154;2023-10-09T06:50:13;18.40;64.00
7077;DHT22;3579;48.956;9.154;2023-10-09T06:52:48;18.70;62.90
7077;DHT22;3579;48.956;9.154;2023-10-09T06:55:44;18.90;62.20
7077;DHT22;3579;48.956;9.154;2023-10-09T06:58:21;19.00;61.50
7077;DHT22;3579;48.956;9.154;2023-10-09T07:00:55;19.10;61.40
7077;DHT22;3579;48.956;9.154;2023-10-09T07:03:25;19.20;61.20
7077;DHT22;3579;48.956;9.154;2023-10-09T07:06:09;19.20;61.70
7077;DHT22;3579;48.956;9.154;2023-10-09T07:08:57;19.20;60.80
7077;DHT22;3579;48.956;9.154;2023-10-09T07:11:36;19.30;60.80
7077;DHT22;3579;48.956;9.154;2023-10-09T07:14:12;19.30;60.70
7077;DHT22;3579;48.956;9.154;2023-10-09T07:16:54;19.30;60.70
7077;DHT22;3579;48.956;9.154;2023-10-09T07:19:25;19.30;60.70
7077;DHT22;3579;48.956;9.154;2023-10-09T07:22:01;19.40;60.70
7077;DHT22;3579;48.956;9.154;2023-10-09T07:24:41;19.40;60.60
7077;DHT22;3579;48.956;9.154;2023-10-09T07:27:19;19.50;60.70
7077;DHT22;3579;48.956;9.154;2023-10-09T07:30:06;19.50;60.70
7077;DHT22;3579;48.956;9.154;2023-10-09T07:32:59;19.50;60.60
7077;DHT22;3579;48.956;9.154;2023-10-09T07:35:46;19.50;60.60
7077;DHT22;3579;48.956;9.154;2023-10-09T07:40:41;19.50;60.40
7077;DHT22;3579;48.956;9.154;2023-10-09T07:43:46;19.60;60.50
7077;DHT22;3579;48.956;9.154;2023-10-09T07:46:17;19.60;60.40
7077;DHT22;3579;48.956;9.154;2023-10-09T07:49:03;19.60;61.00
7077;DHT22;3579;48.956;9.154;2023-10-09T07:51:37;19.60;60.40
7077;DHT22;3579;48.956;9.154;2023-10-09T07:54:03;19.70;60.40
7077;DHT22;3579;48.956;9.154;2023-10-09T07:56:34;19.60;60.10
7077;DHT22;3579;48.956;9.154;2023-10-09T07:59:10;19.70;60.20
7077;DHT22;3579;48.956;9.154;2023-10-09T08:01:50;19.70;60.20
7077;DHT22;3579;48.956;9.154;2023-10-09T08:04:21;19.70;60.10
7077;DHT22;3579;48.956;9.154;2023-10-09T08:07:04;19.70;60.00
7077;DHT22;3579;48.956;9.154;2023-10-09T08:09:34;19.80;60.10
7077;DHT22;3579;48.956;9.154;2023-10-09T08:12:16;19.80;60.00
7077;DHT22;3579;48.956;9.154;2023-10-09T08:15:02;19.80;59.90
7077;DHT22;3579;48.956;9.154;2023-10-09T08:17:55;19.90;60.00
7077;DHT22;3579;48.956;9.154;2023-10-09T08:20:36;19.80;59.90
7077;DHT22;3579;48.956;9.154;2023-10-09T08:23:21;19.90;59.90
7077;DHT22;3579;48.956;9.154;2023-10-09T08:26:03;19.90;59.90
7077;DHT22;3579;48.956;9.154;2023-10-09T08:28:42;17.70;58.40
7077;DHT22;3579;48.956;9.154;2023-10-09T08:31:13;20.00;60.10
7077;DHT22;3579;48.956;9.154;2023-10-09T08:34:00;20.00;59.90
7077;DHT22;3579;48.956;9.154;2023-10-09T08:36:28;20.00;59.70
7077;DHT22;3579;48.956;9.154;2023-10-09T08:39:04;20.00;59.60
7077;DHT22;3579;48.956;9.154;2023-10-09T08:41:51;20.10;59.70
7077;DHT22;3579;48.956;9.154;2023-10-09T08:44:25;20.10;60.20
7077;DHT22;3579;48.956;9.154;2023-10-09T08:46:56;20.10;59.80
7077;DHT22;3579;48.956;9.154;2023-10-09T08:49:26;20.10;59.80
7077;DHT22;3579;48.956;9.154;2023-10-09T08:51:53;20.10;59.80
7077;DHT22;3579;48.956;9.154;2023-10-09T08:54:20;20.20;59.80
7077;DHT22;3579;48.956;9.154;2023-10-09T08:56:46;20.20;59.80
7077;DHT22;3579;48.956;9.154;2023-10-09T08:59:19;20.20;59.80
7077;DHT22;3579;48.956;9.154;2023-10-09T09:01:49;20.20;59.80
7077;DHT22;3579;48.956;9.154;2023-10-09T09:04:38;20.30;59.90
7077;DHT22;3579;48.956;9.154;2023-10-09T09:07:06;20.30;59.90
7077;DHT22;3579;48.956;9.154;2023-10-09T09:09:33;20.30;59.90
7077;DHT22;3579;48.956;9.154;2023-10-09T09:12:00;20.40;59.90
7077;DHT22;3579;48.956;9.154;2023-10-09T09:14:38;20.40;59.90
7077;DHT22;3579;48.956;9.154;2023-10-09T09:17:06;20.40;59.80
7077;DHT22;3579;48.956;9.154;2023-10-09T09:19:37;20.50;59.90
7077;DHT22;3579;48.956;9.154;2023-10-09T09:22:04;20.50;60.40
7077;DHT22;3579;48.956;9.154;2023-10-09T09:24:40;20.50;59.90
7077;DHT22;3579;48.956;9.154;2023-10-09T09:27:13;20.50;59.80
7077;DHT22;3579;48.956;9.154;2023-10-09T09:29:44;20.60;60.50
7077;DHT22;3579;48.956;9.154;2023-10-09T09:32:33;20.60;59.70
7077;DHT22;3579;48.956;9.154;2023-10-09T09:35:03;20.70;59.70
7077;DHT22;3579;48.956;9.154;2023-10-09T09:37:33;20.70;59.70
7077;DHT22;3579;48.956;9.154;2023-10-09T09:40:20;20.80;59.80
7077;DHT22;3579;48.956;9.154;2023-10-09T09:43:00;20.80;60.30
7077;DHT22;3579;48.956;9.154;2023-10-09T09:45:37;20.80;59.70
7077;DHT22;3579;48.956;9.154;2023-10-09T09:48:04;20.80;59.60
7077;DHT22;3579;48.956;9.154;2023-10-09T09:50:41;20.90;59.30
7077;DHT22;3579;48.956;9.154;2023-10-09T09:53:14;21.00;59.20
7077;DHT22;3579;48.956;9.154;2023-10-09T09:55:53;21.00;59.60
7077;DHT22;3579;48.956;9.154;2023-10-09T09:58:26;21.10;59.40
7077;DHT22;3579;48.956;9.154;2023-10-09T10:01:06;21.20;58.70
7077;DHT22;3579;48.956;9.154;2023-10-09T10:04:06;21.20;58.60
7077;DHT22;3579;48.956;9.154;2023-10-09T10:06:37;21.30;58.60
7077;DHT22;3579;48.956;9.154;2023-10-09T10:09:06;21.30;58.30
7077;DHT22;3579;48.956;9.154;2023-10-09T10:11:43;21.30;58.90
7077;DHT22;3579;48.956;9.154;2023-10-09T10:14:11;21.30;58.90
7077;DHT22;3579;48.956;9.154;2023-10-09T10:17:13;21.30;58.30
7077;DHT22;3579;48.956;9.154;2023-10-09T10:20:04;21.30;58.50
7077;DHT22;3579;48.956;9.154;2023-10-09T10:23:19;21.40;58.30
7077;DHT22;3579;48.956;9.154;2023-10-09T10:25:46;21.40;58.20
7077;DHT22;3579;48.956;9.154;2023-10-09T10:30:57;21.40;59.00
7077;DHT22;3579;48.956;9.154;2023-10-09T10:33:27;21.40;58.80
7077;DHT22;3579;48.956;9.154;2023-10-09T10:36:13;21.40;59.20
7077;DHT22;3579;48.956;9.154;2023-10-09T10:39:06;21.40;58.80
7077;DHT22;3579;48.956;9.154;2023-10-09T10:41:56;21.40;59.20
7077;DHT22;3579;48.956;9.154;2023-10-09T10:44:29;21.40;58.70
7077;DHT22;3579;48.956;9.154;2023-10-09T10:47:06;21.40;59.10
7077;DHT22;3579;48.956;9.154;2023-10-09T10:49:52;21.40;58.70
7077;DHT22;3579;48.956;9.154;2023-10-09T10:52:27;21.40;58.50
7077;DHT22;3579;48.956;9.154;2023-10-09T10:55:11;21.40;58.90
7077;DHT22;3579;48.956;9.154;2023-10-09T10:57:45;21.40;58.90
7077;DHT22;3579;48.956;9.154;2023-10-09T11:00:30;21.40;58.80
7077;DHT22;3579;48.956;9.154;2023-10-09T11:03:22;21.50;58.80
7077;DHT22;3579;48.956;9.154;2023-10-09T11:06:31;21.50;58.80
7077;DHT22;3579;48.956;9.154;2023-10-09T11:09:06;21.50;59.30
7077;DHT22;3579;48.956;9.154;2023-10-09T11:11:50;21.50;60.20
7077;DHT22;3579;48.956;9.154;2023-10-09T11:14:21;21.50;61.30
7077;DHT22;3579;48.956;9.154;2023-10-09T11:16:50;21.50;61.40
7077;DHT22;3579;48.956;9.154;2023-10-09T11:19:21;21.50;61.40
7077;DHT22;3579;48.956;9.154;2023-10-09T11:21:58;21.60;61.20
7077;DHT22;3579;48.956;9.154;2023-10-09T11:24:28;21.50;60.60
7077;DHT22;3579;48.956;9.154;2023-10-09T11:27:02;21.50;60.90
7077;DHT22;3579;48.956;9.154;2023-10-09T11:29:33;21.60;60.70
7077;DHT22;3579;48.956;9.154;2023-10-09T11:32:09;21.60;59.70
7077;DHT22;3579;48.956;9.154;2023-10-09T11:34:50;21.70;60.00
7077;DHT22;3579;48.956;9.154;2023-10-09T11:37:23;21.70;59.60
7077;DHT22;3579;48.956;9.154;2023-10-09T11:39:59;21.70;59.50
7077;DHT22;3579;48.956;9.154;2023-10-09T11:42:30;21.70;59.00
7077;DHT22;3579;48.956;9.154;2023-10-09T11:45:18;21.80;58.70
7077;DHT22;3579;48.956;9.154;2023-10-09T11:47:56;21.80;58.70
7077;DHT22;3579;48.956;9.154;2023-10-09T11:50:43;21.90;58.70
7077;DHT22;3579;48.956;9.154;2023-10-09T11:53:19;21.90;58.70
7077;DHT22;3579;48.956;9.154;2023-10-09T11:55:48;21.90;59.00
7077;DHT22;3579;48.956;9.154;2023-10-09T11:58:19;22.00;58.60
7077;DHT22;3579;48.956;9.154;2023-10-09T12:00:58;22.00;58.50
7077;DHT22;3579;48.956;9.154;2023-10-09T12:03:32;22.00;58.80
7077;DHT22;3579;48.956;9.154;2023-10-09T12:06:02;22.00;59.90
7077;DHT22;3579;48.956;9.154;2023-10-09T12:08:31;22.00;59.50
7077;DHT22;3579;48.956;9.154;2023-10-09T12:10:58;22.00;59.40
7077;DHT22;3579;48.956;9.154;2023-10-09T12:13:24;22.10;59.20
7077;DHT22;3579;48.956;9.154;2023-10-09T12:15:52;22.10;59.00
7077;DHT22;3579;48.956;9.154;2023-10-09T12:18:20;22.10;59.00
7077;DHT22;3579;48.956;9.154;2023-10-09T12:20:48;22.20;59.00
7077;DHT22;3579;48.956;9.154;2023-10-09T12:23:18;22.20;59.40
7077;DHT22;3579;48.956;9.154;2023-10-09T12:25:45;22.20;59.50
7077;DHT22;3579;48.956;9.154;2023-10-09T12:28:14;22.20;59.50
7077;DHT22;3579;48.956;9.154;2023-10-09T12:30:41;22.30;59.40
7077;DHT22;3579;48.956;9.154;2023-10-09T12:33:08;22.20;59.30
7077;DHT22;3579;48.956;9.154;2023-10-09T12:35:38;22.30;59.40
7077;DHT22;3579;48.956;9.154;2023-10-09T12:38:06;22.30;59.20
7077;DHT22;3579;48.956;9.154;2023-10-09T12:40:36;22.30;59.20
7077;DHT22;3579;48.956;9.154;2023-10-09T12:43:03;22.40;59.70
7077;DHT22;3579;48.956;9.154;2023-10-09T12:45:29;22.30;59.10
7077;DHT22;3579;48.956;9.154;2023-10-09T12:47:59;22.40;58.90
7077;DHT22;3579;48.956;9.154;2023-10-09T12:50:25;22.40;58.60
7077;DHT22;3579;48.956;9.154;2023-10-09T12:52:56;22.40;58.40
7077;DHT22;3579;48.956;9.154;2023-10-09T12:55:22;22.40;58.80
7077;DHT22;3579;48.956;9.154;2023-10-09T12:58:00;22.40;57.70
7077;DHT22;3579;48.956;9.154;2023-10-09T13:00:36;22.50;57.90
7077;DHT22;3579;48.956;9.154;2023-10-09T13:03:12;22.50;57.80
7077;DHT22;3579;48.956;9.154;2023-10-09T13:08:22;22.50;57.60
7077;DHT22;3579;48.956;9.154;2023-10-09T13:10:50;22.60;57.50
7077;DHT22;3579;48.956;9.154;2023-10-09T13:13:27;22.60;57.40
7077;DHT22;3579;48.956;9.154;2023-10-09T13:16:07;22.60;57.40
7077;DHT22;3579;48.956;9.154;2023-10-09T13:18:33;22.70;56.70
7077;DHT22;3579;48.956;9.154;2023-10-09T13:20:59;22.70;56.90
7077;DHT22;3579;48.956;9.154;2023-10-09T13:23:30;22.70;57.10
7077;DHT22;3579;48.956;9.154;2023-10-09T13:26:06;22.70;57.20
7077;DHT22;3579;48.956;9.154;2023-10-09T13:28:48;22.70;57.20
7077;DHT22;3579;48.956;9.154;2023-10-09T13:31:15;22.70;56.90
7077;DHT22;3579;48.956;9.154;2023-10-09T13:33:42;22.70;56.80
7077;DHT22;3579;48.956;9.154;2023-10-09T13:36:12;22.80;56.10
7077;DHT22;3579;48.956;9.154;2023-10-09T13:38:43;22.70;56.00
7077;DHT22;3579;48.956;9.154;2023-10-09T13:41:10;22.80;56.50
7077;DHT22;3579;48.956;9.154;2023-10-09T13:43:43;22.80;56.20
7077;DHT22;3579;48.956;9.154;2023-10-09T13:46:10;22.80;55.60
7077;DHT22;3579;48.956;9.154;2023-10-09T13:48:44;22.80;55.40
7077;DHT22;3579;48.956;9.154;2023-10-09T13:51:12;22.90;55.70
7077;DHT22;3579;48.956;9.154;2023-10-09T13:53:47;22.90;55.10
7077;DHT22;3579;48.956;9.154;2023-10-09T13:56:14;22.90;55.60
7077;DHT22;3579;48.956;9.154;2023-10-09T13:58:45;22.90;53.80
7077;DHT22;3579;48.956;9.154;2023-10-09T14:01:11;22.90;54.50
7077;DHT22;3579;48.956;9.154;2023-10-09T14:03:47;22.90;54.00
7077;DHT22;3579;48.956;9.154;2023-10-09T14:06:16;23.00;53.50
7077;DHT22;3579;48.956;9.154;2023-10-09T14:08:46;22.90;53.40
7077;DHT22;3579;48.956;9.154;2023-10-09T14:11:12;22.90;54.00
7077;DHT22;3579;48.956;9.154;2023-10-09T14:13:42;22.90;54.30
7077;DHT22;3579;48.956;9.154;2023-10-09T14:16:08;22.90;53.60
7077;DHT22;3579;48.956;9.154;2023-10-09T14:18:53;23.00;52.40
7077;DHT22;3579;48.956;9.154;2023-10-09T14:21:26;23.00;51.60
7077;DHT22;3579;48.956;9.154;2023-10-09T14:23:56;23.00;52.30
7077;DHT22;3579;48.956;9.154;2023-10-09T14:26:27;22.90;54.30
7077;DHT22;3579;48.956;9.154;2023-10-09T14:28:54;22.90;54.80
7077;DHT22;3579;48.956;9.154;2023-10-09T14:31:24;22.90;55.30
7077;DHT22;3579;48.956;9.154;2023-10-09T14:33:55;22.80;55.40
7077;DHT22;3579;48.956;9.154;2023-10-09T14:36:21;22.80;55.40
7077;DHT22;3579;48.956;9.154;2023-10-09T14:38:51;22.80;55.50
7077;DHT22;3579;48.956;9.154;2023-10-09T14:41:19;22.80;55.50
7077;DHT22;3579;48.956;9.154;2023-10-09T14:43:50;22.80;55.50
7077;DHT22;3579;48.956;9.154;2023-10-09T14:46:16;22.80;55.60
7077;DHT22;3579;48.956;9.154;2023-10-09T14:48:46;22.80;55.70
7077;DHT22;3579;48.956;9.154;2023-10-09T14:51:14;22.70;55.70
7077;DHT22;3579;48.956;9.154;2023-10-09T14:53:40;22.80;55.80
7077;DHT22;3579;48.956;9.154;2023-10-09T14:56:06;22.80;55.80
7077;DHT22;3579;48.956;9.154;2023-10-09T14:58:35;22.70;55.80
7077;DHT22;3579;48.956;9.154;2023-10-09T15:01:09;22.70;55.80
7077;DHT22;3579;48.956;9.154;2023-10-09T15:03:36;22.70;55.90
7077;DHT22;3579;48.956;9.154;2023-10-09T15:06:05;22.70;55.90
7077;DHT22;3579;48.956;9.154;2023-10-09T15:08:37;22.70;55.90
7077;DHT22;3579;48.956;9.154;2023-10-09T15:11:03;22.70;56.00
7077;DHT22;3579;48.956;9.154;2023-10-09T15:13:29;22.70;56.00
7077;DHT22;3579;48.956;9.154;2023-10-09T15:15:56;22.70;56.00
7077;DHT22;3579;48.956;9.154;2023-10-09T15:18:22;22.70;56.00
7077;DHT22;3579;48.956;9.154;2023-10-09T15:20:49;22.70;56.00
7077;DHT22;3579;48.956;9.154;2023-10-09T15:23:17;22.70;56.10
7077;DHT22;3579;48.956;9.154;2023-10-09T15:25:45;22.70;56.10
7077;DHT22;3579;48.956;9.154;2023-10-09T15:28:16;22.70;56.10
7077;DHT22;3579;48.956;9.154;2023-10-09T15:30:43;22.70;56.10
7077;DHT22;3579;48.956;9.154;2023-10-09T15:33:09;22.70;56.70
7077;DHT22;3579;48.956;9.154;2023-10-09T15:35:37;22.70;56.10
7077;DHT22;3579;48.956;9.154;2023-10-09T15:38:03;22.70;56.20
7077;DHT22;3579;48.956;9.154;2023-10-09T15:40:30;22.70;56.20
7077;DHT22;3579;48.956;9.154;2023-10-09T15:42:59;22.70;56.20
7077;DHT22;3579;48.956;9.154;2023-10-09T15:45:26;22.60;56.10
7077;DHT22;3579;48.956;9.154;2023-10-09T15:47:54;22.70;56.30
7077;DHT22;3579;48.956;9.154;2023-10-09T15:50:21;22.70;56.30
7077;DHT22;3579;48.956;9.154;2023-10-09T15:52:54;22.70;56.30
7077;DHT22;3579;48.956;9.154;2023-10-09T15:55:21;22.60;56.20
7077;DHT22;3579;48.956;9.154;2023-10-09T15:57:50;22.60;56.20
7077;DHT22;3579;48.956;9.154;2023-10-09T16:00:21;22.60;56.30
7077;DHT22;3579;48.956;9.154;2023-10-09T16:02:48;22.60;56.30
7077;DHT22;3579;48.956;9.154;2023-10-09T16:05:15;22.60;56.30
7077;DHT22;3579;48.956;9.154;2023-10-09T16:07:42;22.60;56.30
7077;DHT22;3579;48.956;9.154;2023-10-09T16:10:09;22.60;56.30
7077;DHT22;3579;48.956;9.154;2023-10-09T16:12:39;22.60;56.30
7077;DHT22;3579;48.956;9.154;2023-10-09T16:15:07;22.60;56.30
7077;DHT22;3579;48.956;9.154;2023-10-09T16:17:34;22.60;56.40
7077;DHT22;3579;48.956;9.154;2023-10-09T16:20:00;22.60;56.90
7077;DHT22;3579;48.956;9.154;2023-10-09T16:22:27;22.50;56.30
7077;DHT22;3579;48.956;9.154;2023-10-09T16:24:59;22.50;56.40
7077;DHT22;3579;48.956;9.154;2023-10-09T16:27:27;22.50;56.40
7077;DHT22;3579;48.956;9.154;2023-10-09T16:29:53;22.50;56.50
7077;DHT22;3579;48.956;9.154;2023-10-09T16:32:20;22.50;56.50
7077;DHT22;3579;48.956;9.154;2023-10-09T16:34:50;22.50;57.00
7077;DHT22;3579;48.956;9.154;2023-10-09T16:37:17;22.50;56.50
7077;DHT22;3579;48.956;9.154;2023-10-09T16:39:48;22.50;56.50
7077;DHT22;3579;48.956;9.154;2023-10-09T16:42:19;22.50;56.50
7077;DHT22;3579;48.956;9.154;2023-10-09T16:44:50;22.40;57.00
7077;DHT22;3579;48.956;9.154;2023-10-09T16:47:16;22.40;56.50
7077;DHT22;3579;48.956;9.154;2023-10-09T16:49:45;22.40;56.50
7077;DHT22;3579;48.956;9.154;2023-10-09T16:52:17;22.40;56.50
7077;DHT22;3579;48.956;9.154;2023-10-09T16:54:43;22.40;56.60
7077;DHT22;3579;48.956;9.154;2023-10-09T16:57:10;22.40;56.60